Brownson, Nebraska
Current Conditions -  °F | °C
As of 10:53 PM on Wednesday 26 Nov 2014 (Local Time) from KSNY Reporting Station
Clear Clear  
Wind Chill:   Ceiling: Unl
Heat Index: 18°   Visibility: 10mi
Dew Point: 15°   Wind: 8mph
Humidity: 88%   Direction: 210°SSW
Pressure: 30.28"   Gusts: NA
Location:  41.108°N, 103.012°W
Report Text: KSNY 270553Z AUTO 21007KT 10SM CLR M08/M09 A3028 RMK AO2 SLP300 60000 I1000 I6000 T10781094 11028 21094 55002
Loading
Personal Weather Stations






























Interactive Weather Map New forecast layout! Learn more

10-Day Weather Forecast

Advertisements
Track Severe Weather on mobile